createdAt,value
2018-06-17T00:01:57.184Z,8.83
2018-06-17T00:04:25.471Z,11.00
2018-06-17T00:06:53.711Z,12.17
2018-06-17T00:09:22.132Z,8.80
2018-06-17T00:11:50.346Z,9.87
2018-06-17T00:14:18.570Z,15.00
2018-06-17T00:16:46.742Z,9.77
2018-06-17T00:19:15.048Z,8.97
2018-06-17T00:21:43.284Z,8.87
2018-06-17T00:24:11.966Z,8.87
2018-06-17T00:26:40.596Z,9.10
2018-06-17T00:29:08.931Z,8.93
2018-06-17T00:31:37.835Z,8.90
2018-06-17T00:34:06.131Z,9.33
2018-06-17T00:36:34.809Z,10.30
2018-06-17T00:39:03.066Z,8.70
2018-06-17T00:41:31.420Z,8.97
2018-06-17T00:43:59.820Z,9.70
2018-06-17T00:46:28.047Z,9.60
2018-06-17T00:48:56.954Z,10.40
2018-06-17T00:51:25.129Z,9.90
2018-06-17T00:53:54.662Z,9.83
2018-06-17T00:56:23.020Z,9.53
2018-06-17T00:58:51.283Z,10.30
2018-06-17T01:01:19.596Z,10.57
2018-06-17T01:03:49.638Z,10.93
2018-06-17T01:06:17.872Z,10.67
2018-06-17T01:08:46.200Z,10.03
2018-06-17T01:11:14.960Z,10.40
2018-06-17T01:13:43.266Z,10.20
2018-06-17T01:16:11.504Z,10.53
2018-06-17T01:18:39.798Z,10.87
2018-06-17T01:21:08.090Z,10.50
2018-06-17T01:23:36.466Z,10.10
2018-06-17T01:26:07.896Z,9.77
2018-06-17T01:28:36.899Z,10.53
2018-06-17T01:31:05.318Z,10.40
2018-06-17T01:33:33.980Z,10.67
2018-06-17T01:36:02.710Z,11.30
2018-06-17T01:38:31.850Z,11.20
2018-06-17T01:41:00.698Z,10.87
2018-06-17T01:43:29.416Z,12.20
2018-06-17T01:45:57.637Z,10.60
2018-06-17T01:48:25.932Z,11.10
2018-06-17T01:50:54.138Z,10.97
2018-06-17T01:53:22.364Z,11.10
2018-06-17T01:55:50.713Z,11.63
2018-06-17T01:58:19.000Z,11.97
2018-06-17T02:00:48.375Z,12.37
2018-06-17T02:03:21.978Z,12.00
2018-06-17T02:05:55.611Z,12.27
2018-06-17T02:08:29.102Z,12.40
2018-06-17T02:11:02.750Z,12.50
2018-06-17T02:13:31.046Z,12.50
2018-06-17T02:16:00.184Z,12.53
2018-06-17T02:18:28.408Z,12.97
2018-06-17T02:20:56.627Z,12.83
2018-06-17T02:23:24.824Z,12.93
2018-06-17T02:25:53.267Z,13.83
2018-06-17T02:28:21.764Z,13.10
2018-06-17T02:30:50.012Z,13.43
2018-06-17T02:33:18.321Z,13.20
2018-06-17T02:35:46.603Z,13.17
2018-06-17T02:38:14.871Z,13.30
2018-06-17T02:40:43.121Z,13.33
2018-06-17T02:43:11.469Z,13.30
2018-06-17T02:45:45.370Z,14.13
2018-06-17T02:48:19.067Z,13.60
2018-06-17T02:50:52.727Z,13.50
2018-06-17T02:53:26.392Z,13.57
2018-06-17T02:55:54.878Z,14.03
2018-06-17T02:58:23.203Z,13.30
2018-06-17T03:00:51.796Z,14.07
2018-06-17T03:03:20.153Z,13.53
2018-06-17T03:05:49.031Z,13.33
2018-06-17T03:08:17.319Z,12.97
2018-06-17T03:10:45.530Z,13.40
2018-06-17T03:13:13.736Z,13.80
2018-06-17T03:15:41.935Z,14.17
2018-06-17T03:18:10.215Z,14.63
2018-06-17T03:20:38.416Z,14.70
2018-06-17T03:23:06.785Z,14.70
2018-06-17T03:25:40.467Z,14.40
2018-06-17T03:28:14.219Z,15.13
2018-06-17T03:30:47.926Z,14.57
2018-06-17T03:33:21.713Z,13.30
2018-06-17T03:35:55.591Z,14.47
2018-06-17T03:38:24.198Z,14.37
2018-06-17T03:40:52.410Z,14.30
2018-06-17T03:43:21.024Z,14.93
2018-06-17T03:45:49.326Z,14.23
2018-06-17T03:48:17.528Z,13.30
2018-06-17T03:50:46.291Z,13.57
2018-06-17T03:53:14.827Z,14.80
2018-06-17T03:55:43.286Z,14.30
2018-06-17T03:58:11.572Z,15.00
2018-06-17T04:00:39.832Z,14.47
2018-06-17T04:03:08.051Z,14.40
2018-06-17T04:05:36.269Z,15.72
2018-06-17T04:08:04.483Z,15.13
2018-06-17T04:10:32.668Z,15.43
2018-06-17T04:13:00.970Z,15.08
2018-06-17T04:15:29.168Z,14.05
2018-06-17T04:17:57.387Z,14.65
2018-06-17T04:20:25.656Z,14.85
2018-06-17T04:22:53.834Z,14.40
2018-06-17T04:25:22.076Z,14.53
2018-06-17T04:27:50.420Z,15.32
2018-06-17T04:30:18.654Z,14.18
2018-06-17T04:32:47.009Z,15.23
2018-06-17T04:35:15.554Z,14.78
2018-06-17T04:37:43.786Z,14.28
2018-06-17T04:40:12.004Z,14.10
2018-06-17T04:42:40.952Z,15.68
2018-06-17T04:45:09.116Z,13.75
2018-06-17T04:47:37.570Z,13.98
2018-06-17T04:50:06.260Z,13.45
2018-06-17T04:52:34.519Z,26.23
2018-06-17T04:55:02.948Z,13.65
2018-06-17T04:57:31.162Z,12.65
2018-06-17T04:59:59.489Z,14.13
2018-06-17T05:02:27.689Z,13.03
2018-06-17T05:04:56.013Z,12.45
2018-06-17T05:07:24.392Z,12.98
2018-06-17T05:09:52.609Z,12.70
2018-06-17T05:12:21.005Z,12.15
2018-06-17T05:14:49.366Z,15.03
2018-06-17T05:17:17.645Z,13.20
2018-06-17T05:19:45.820Z,13.15
2018-06-17T05:22:14.093Z,12.05
2018-06-17T05:24:42.327Z,12.50
2018-06-17T05:27:10.506Z,14.55
2018-06-17T05:29:38.806Z,12.53
2018-06-17T05:32:07.101Z,11.03
2018-06-17T05:34:35.359Z,11.22
2018-06-17T05:37:04.195Z,11.53
2018-06-17T05:39:32.544Z,10.23
2018-06-17T05:42:01.243Z,10.15
2018-06-17T05:44:29.496Z,8.95
2018-06-17T05:46:58.271Z,11.25
2018-06-17T05:49:26.536Z,8.43
2018-06-17T05:51:54.805Z,8.60
2018-06-17T05:54:23.383Z,7.85
2018-06-17T05:56:51.651Z,8.00
2018-06-17T05:59:19.897Z,8.50
2018-06-17T06:01:48.105Z,15.63
2018-06-17T06:04:16.330Z,9.28
2018-06-17T06:06:44.499Z,8.98
2018-06-17T06:09:13.251Z,9.63
2018-06-17T06:11:42.513Z,8.43
2018-06-17T06:14:10.924Z,8.88
2018-06-17T06:16:39.210Z,9.38
2018-06-17T06:19:07.353Z,9.03
2018-06-17T06:21:35.816Z,8.55
2018-06-17T06:24:04.334Z,8.70
2018-06-17T06:26:32.691Z,8.20
2018-06-17T06:29:00.910Z,9.28
2018-06-17T06:31:29.545Z,8.13
2018-06-17T06:33:57.750Z,7.85
2018-06-17T06:36:26.407Z,8.53
2018-06-17T06:38:56.211Z,8.45
2018-06-17T06:41:24.587Z,8.68
2018-06-17T06:43:53.175Z,8.83
2018-06-17T06:46:21.411Z,8.20
2018-06-17T06:48:49.621Z,8.30
2018-06-17T06:51:17.838Z,7.58
2018-06-17T06:53:46.050Z,8.48
2018-06-17T06:56:14.395Z,8.83
2018-06-17T06:58:42.607Z,7.30
2018-06-17T07:01:10.913Z,7.60
2018-06-17T07:03:50.763Z,6.78
2018-06-17T07:06:30.604Z,7.65
2018-06-17T07:09:10.152Z,8.38
2018-06-17T07:11:39.182Z,9.58
2018-06-17T07:14:07.580Z,8.18
2018-06-17T07:16:47.097Z,7.22
2018-06-17T07:19:15.886Z,7.47
2018-06-17T07:21:44.202Z,8.25
2018-06-17T07:24:12.442Z,9.55
2018-06-17T07:26:53.407Z,7.62
2018-06-17T07:29:34.568Z,7.12
2018-06-17T07:32:02.799Z,6.45
2018-06-17T07:34:31.098Z,7.03
2018-06-17T07:36:59.653Z,8.80
2018-06-17T07:41:36.004Z,7.25
2018-06-17T07:44:04.299Z,6.83
2018-06-17T07:46:32.542Z,6.90
2018-06-17T07:49:42.680Z,8.35
2018-06-17T07:52:23.537Z,6.62
2018-06-17T07:54:51.884Z,6.55
2018-06-17T07:57:21.493Z,8.93
2018-06-17T07:59:49.821Z,6.65
2018-06-17T08:02:18.494Z,7.30
2018-06-17T08:04:46.966Z,7.03
2018-06-17T08:07:15.152Z,7.67
2018-06-17T08:09:43.474Z,13.32
2018-06-17T08:12:12.619Z,6.60
2018-06-17T08:14:41.052Z,12.28
2018-06-17T08:17:09.552Z,5.97
2018-06-17T08:19:37.894Z,8.00
2018-06-17T08:22:06.065Z,5.58
2018-06-17T08:24:34.805Z,7.22
2018-06-17T08:27:03.004Z,6.12
2018-06-17T08:29:31.344Z,6.37
2018-06-17T08:31:59.743Z,7.22
2018-06-17T08:34:28.436Z,7.00
2018-06-17T08:36:56.661Z,5.75
2018-06-17T08:39:25.368Z,8.13
2018-06-17T08:41:53.656Z,7.53
2018-06-17T08:44:22.237Z,13.10
2018-06-17T08:46:51.096Z,7.15
2018-06-17T08:49:20.328Z,6.70
2018-06-17T08:51:48.661Z,6.03
2018-06-17T08:54:17.045Z,5.42
2018-06-17T08:56:45.249Z,5.83
2018-06-17T08:59:14.210Z,5.30
2018-06-17T09:01:42.450Z,6.10
2018-06-17T09:04:10.718Z,7.47
2018-06-17T09:06:39.025Z,5.78
2018-06-17T09:09:09.673Z,4.83
2018-06-17T09:11:37.993Z,8.03
2018-06-17T09:14:06.297Z,7.70
2018-06-17T09:16:35.226Z,5.45
2018-06-17T09:19:03.462Z,4.40
2018-06-17T09:21:31.635Z,6.87
2018-06-17T09:23:59.991Z,4.50
2018-06-17T09:26:28.325Z,4.90
2018-06-17T09:28:56.524Z,5.53
2018-06-17T09:31:25.039Z,5.25
2018-06-17T09:33:53.678Z,5.10
2018-06-17T09:36:22.085Z,6.50
2018-06-17T09:38:50.370Z,6.15
2018-06-17T09:41:18.790Z,4.50
2018-06-17T09:43:47.072Z,6.85
2018-06-17T09:46:15.267Z,4.97
2018-06-17T09:48:43.571Z,8.65
2018-06-17T09:51:11.818Z,7.42
2018-06-17T09:53:40.101Z,7.12
2018-06-17T09:56:08.637Z,6.67
2018-06-17T09:58:37.063Z,4.03
2018-06-17T10:01:06.075Z,5.45
2018-06-17T10:03:35.389Z,5.78
2018-06-17T10:06:03.733Z,4.90
2018-06-17T10:08:32.055Z,4.67
2018-06-17T10:11:05.325Z,4.17
2018-06-17T10:13:38.997Z,4.83
2018-06-17T10:16:07.880Z,4.10
2018-06-17T10:18:36.122Z,3.98
2018-06-17T10:21:04.394Z,4.60
2018-06-17T10:23:32.722Z,9.33
2018-06-17T10:26:01.021Z,6.60
2018-06-17T10:28:30.992Z,5.33
2018-06-17T10:31:00.592Z,5.78
2018-06-17T10:33:28.895Z,5.33
2018-06-17T10:35:58.090Z,4.78
2018-06-17T10:38:27.723Z,4.28
2018-06-17T10:40:56.006Z,4.45
2018-06-17T10:43:26.607Z,11.80
2018-06-17T10:45:55.001Z,4.85
2018-06-17T10:48:23.576Z,4.15
2018-06-17T10:50:51.882Z,3.87
2018-06-17T10:53:20.925Z,3.75
2018-06-17T10:55:49.426Z,4.47
2018-06-17T10:58:17.825Z,4.75
2018-06-17T11:00:46.150Z,4.10
2018-06-17T11:03:14.375Z,4.00
2018-06-17T11:05:44.116Z,6.30
2018-06-17T11:08:12.423Z,7.33
2018-06-17T11:10:40.759Z,6.53
2018-06-17T11:13:09.371Z,3.83
2018-06-17T11:15:37.984Z,6.42
2018-06-17T11:18:06.270Z,6.25
2018-06-17T11:20:34.686Z,5.97
2018-06-17T11:23:03.041Z,4.75
2018-06-17T11:25:31.468Z,4.83
2018-06-17T11:28:00.231Z,10.85
2018-06-17T11:30:28.505Z,5.25
2018-06-17T11:32:56.728Z,6.53
2018-06-17T11:35:24.972Z,14.18
2018-06-17T11:37:53.170Z,5.03
2018-06-17T11:40:22.098Z,4.60
2018-06-17T11:42:50.355Z,5.35
2018-06-17T11:45:19.080Z,5.30
2018-06-17T11:47:48.048Z,6.95
2018-06-17T11:50:16.295Z,7.58
2018-06-17T11:52:44.524Z,4.45
2018-06-17T11:55:12.791Z,5.55
2018-06-17T11:57:41.046Z,5.00
2018-06-17T12:00:09.268Z,4.50
2018-06-17T12:02:37.514Z,7.65
2018-06-17T12:05:05.802Z,5.15
2018-06-17T12:07:34.260Z,7.35
2018-06-17T12:10:02.492Z,6.28
2018-06-17T12:12:30.724Z,4.45
2018-06-17T12:14:58.937Z,6.20
2018-06-17T12:17:27.233Z,6.70
2018-06-17T12:19:55.528Z,11.38
2018-06-17T12:22:23.745Z,5.35
2018-06-17T12:24:51.940Z,5.00
2018-06-17T12:27:20.166Z,5.47
2018-06-17T12:29:48.354Z,5.60
2018-06-17T12:32:16.610Z,6.72
2018-06-17T12:34:44.859Z,5.03
2018-06-17T12:37:13.125Z,6.12
2018-06-17T12:39:41.368Z,5.55
2018-06-17T12:42:09.847Z,5.60
2018-06-17T12:44:38.079Z,5.83
2018-06-17T12:47:06.352Z,11.08
2018-06-17T12:49:34.739Z,9.25
2018-06-17T12:52:09.459Z,7.03
2018-06-17T12:54:38.043Z,6.45
2018-06-17T12:57:06.295Z,6.50
2018-06-17T12:59:34.605Z,4.90
2018-06-17T13:02:02.675Z,5.37
2018-06-17T13:04:30.925Z,5.50
2018-06-17T13:07:00.537Z,4.90
2018-06-17T13:09:28.753Z,8.18
2018-06-17T13:11:56.991Z,5.22
2018-06-17T13:14:25.365Z,5.87
2018-06-17T13:16:53.808Z,4.87
2018-06-17T13:19:22.367Z,5.65
2018-06-17T13:21:50.655Z,6.90
2018-06-17T13:24:19.073Z,4.67
2018-06-17T13:26:47.340Z,6.22
2018-06-17T13:29:15.915Z,9.25
2018-06-17T13:31:44.247Z,5.80
2018-06-17T13:34:12.720Z,5.45
2018-06-17T13:36:41.171Z,6.20
2018-06-17T13:39:09.984Z,5.47
2018-06-17T13:41:38.542Z,6.53
2018-06-17T13:44:06.849Z,8.80
2018-06-17T13:46:35.123Z,5.40
2018-06-17T13:49:03.391Z,5.85
2018-06-17T13:51:31.680Z,5.75
2018-06-17T13:54:00.471Z,8.05
2018-06-17T13:56:28.733Z,8.05
2018-06-17T13:58:56.937Z,5.60
2018-06-17T14:01:25.146Z,6.08
2018-06-17T14:03:53.322Z,5.50
2018-06-17T14:06:21.558Z,12.20
2018-06-17T14:08:49.766Z,6.10
2018-06-17T14:11:18.203Z,5.58
2018-06-17T14:13:46.697Z,10.30
2018-06-17T14:16:15.144Z,6.72
2018-06-17T14:18:43.447Z,5.67
2018-06-17T14:21:11.680Z,4.58
2018-06-17T14:23:39.989Z,5.20
2018-06-17T14:26:08.666Z,5.17
2018-06-17T14:28:37.079Z,4.80
2018-06-17T14:31:05.868Z,5.60
2018-06-17T14:33:34.090Z,5.25
2018-06-17T14:36:02.384Z,3.98
2018-06-17T14:38:30.586Z,9.35
2018-06-17T14:41:04.183Z,11.55
2018-06-17T14:43:37.765Z,5.75
2018-06-17T14:46:11.468Z,6.53
2018-06-17T14:48:45.273Z,4.92
2018-06-17T14:51:18.912Z,5.28
2018-06-17T14:53:47.284Z,4.53
2018-06-17T14:56:18.328Z,5.05
2018-06-17T14:58:47.604Z,5.78
2018-06-17T15:01:16.453Z,8.05
2018-06-17T15:03:44.983Z,5.10
2018-06-17T15:06:13.266Z,4.17
2018-06-17T15:08:41.889Z,6.45
2018-06-17T15:11:10.467Z,5.35
2018-06-17T15:13:38.813Z,3.30
2018-06-17T15:16:07.092Z,4.50
2018-06-17T15:18:35.672Z,2.90
2018-06-17T15:21:03.970Z,3.58
2018-06-17T15:23:32.250Z,2.62
2018-06-17T15:26:00.510Z,7.00
2018-06-17T15:28:28.791Z,9.38
2018-06-17T15:31:01.328Z,3.10
2018-06-17T15:33:35.085Z,3.05
2018-06-17T15:36:08.906Z,4.28
2018-06-17T15:38:42.425Z,3.90
2018-06-17T15:41:16.699Z,2.90
2018-06-17T15:43:44.994Z,2.95
2018-06-17T15:46:13.479Z,4.15
2018-06-17T15:48:41.814Z,2.70
2018-06-17T15:51:10.146Z,2.95
2018-06-17T15:53:38.334Z,2.90
2018-06-17T15:56:06.604Z,3.30
2018-06-17T15:58:34.865Z,3.42
2018-06-17T16:01:03.057Z,12.25
2018-06-17T16:03:31.276Z,2.67
2018-06-17T16:05:59.817Z,2.60
2018-06-17T16:08:28.093Z,4.60
2018-06-17T16:10:56.518Z,5.70
2018-06-17T16:13:30.074Z,1.98
2018-06-17T16:16:03.594Z,2.87
2018-06-17T16:18:37.296Z,2.20
2018-06-17T16:21:08.033Z,3.62
2018-06-17T16:23:36.425Z,3.10
2018-06-17T16:26:04.874Z,2.45
2018-06-17T16:28:33.165Z,5.35
2018-06-17T16:31:01.400Z,3.22
2018-06-17T16:33:29.804Z,3.95
2018-06-17T16:35:58.056Z,4.60
2018-06-17T16:38:26.316Z,4.78
2018-06-17T16:40:54.651Z,8.28
2018-06-17T16:43:22.910Z,2.87
2018-06-17T16:45:51.198Z,2.60
2018-06-17T16:48:19.527Z,5.65
2018-06-17T16:50:53.203Z,9.75
2018-06-17T16:53:26.933Z,2.35
2018-06-17T16:56:00.661Z,3.90
2018-06-17T16:58:34.195Z,3.30
2018-06-17T17:01:02.443Z,3.40
2018-06-17T17:03:31.082Z,3.42
2018-06-17T17:05:59.459Z,4.43
2018-06-17T17:08:28.008Z,4.67
2018-06-17T17:10:56.240Z,3.57
2018-06-17T17:13:24.489Z,3.43
2018-06-17T17:15:52.949Z,3.33
2018-06-17T17:18:21.217Z,3.07
2018-06-17T17:20:50.077Z,2.33
2018-06-17T17:23:18.446Z,3.93
2018-06-17T17:25:46.818Z,2.87
2018-06-17T17:28:15.047Z,8.23
2018-06-17T17:30:48.053Z,3.20
2018-06-17T17:33:21.747Z,3.77
2018-06-17T17:35:55.565Z,3.60
2018-06-17T17:38:29.198Z,2.60
2018-06-17T17:41:02.371Z,3.87
2018-06-17T17:43:30.853Z,6.20
2018-06-17T17:46:04.567Z,4.97
2018-06-17T17:48:32.813Z,4.50
2018-06-17T17:51:01.724Z,3.60
2018-06-17T17:53:30.355Z,3.20
2018-06-17T17:55:58.882Z,7.23
2018-06-17T17:58:27.360Z,4.27
2018-06-17T18:00:56.601Z,6.80
2018-06-17T18:03:24.904Z,11.17
2018-06-17T18:05:53.124Z,6.67
2018-06-17T18:08:21.391Z,3.53
2018-06-17T18:10:50.068Z,5.03
2018-06-17T18:13:18.497Z,5.73
2018-06-17T18:15:47.185Z,3.23
2018-06-17T18:18:15.501Z,3.33
2018-06-17T18:20:44.565Z,3.23
2018-06-17T18:23:13.439Z,3.20
2018-06-17T18:25:47.186Z,3.63
2018-06-17T18:28:20.745Z,4.40
2018-06-17T18:30:54.396Z,4.37
2018-06-17T18:33:27.994Z,4.57
2018-06-17T18:36:13.385Z,6.40
2018-06-17T18:38:43.144Z,5.70
2018-06-17T18:41:12.515Z,3.43
2018-06-17T18:43:41.384Z,2.60
2018-06-17T18:46:11.015Z,4.00
2018-06-17T18:48:39.788Z,3.90
2018-06-17T18:51:08.096Z,2.77
2018-06-17T18:53:36.386Z,4.27
2018-06-17T18:56:04.712Z,8.20
2018-06-17T18:58:33.050Z,4.40
2018-06-17T19:01:01.252Z,3.70
2018-06-17T19:03:29.508Z,7.03
2018-06-17T19:05:57.719Z,9.17
2018-06-17T19:08:31.481Z,4.97
2018-06-17T19:11:05.081Z,3.20
2018-06-17T19:13:38.971Z,4.20
2018-06-17T19:16:14.976Z,2.70
2018-06-17T19:18:43.498Z,3.30
2018-06-17T19:21:11.784Z,3.13
2018-06-17T19:23:40.195Z,3.10
2018-06-17T19:26:08.415Z,6.30
2018-06-17T19:28:36.711Z,2.90
2018-06-17T19:31:05.213Z,5.00
2018-06-17T19:33:33.774Z,2.97
2018-06-17T19:36:02.238Z,4.00
2018-06-17T19:38:30.485Z,3.30
2018-06-17T19:40:58.853Z,3.80
2018-06-17T19:43:27.086Z,3.20
2018-06-17T19:45:55.389Z,2.97
2018-06-17T19:48:23.621Z,3.10
2018-06-17T19:50:57.118Z,3.20
2018-06-17T19:53:30.801Z,3.07
2018-06-17T19:57:02.682Z,3.27
2018-06-17T19:59:36.245Z,5.73
2018-06-17T20:02:04.561Z,3.07
2018-06-17T20:04:33.123Z,3.30
2018-06-17T20:07:01.837Z,6.40
2018-06-17T20:09:30.108Z,3.30
2018-06-17T20:11:58.442Z,3.20
2018-06-17T20:14:26.697Z,3.93
2018-06-17T20:16:54.900Z,6.77
2018-06-17T20:19:23.187Z,4.77
2018-06-17T20:21:51.432Z,3.53
2018-06-17T20:24:19.964Z,3.77
2018-06-17T20:26:48.593Z,6.53
2018-06-17T20:29:16.852Z,7.60
2018-06-17T20:31:50.367Z,6.40
2018-06-17T20:34:23.958Z,3.40
2018-06-17T20:36:57.592Z,8.80
2018-06-17T20:39:31.695Z,3.50
2018-06-17T20:42:05.382Z,3.00
2018-06-17T20:44:34.138Z,16.03
2018-06-17T20:47:02.981Z,5.10
2018-06-17T20:49:31.238Z,8.97
2018-06-17T20:51:59.436Z,4.30
2018-06-17T20:54:27.917Z,3.30
2018-06-17T20:56:56.295Z,3.20
2018-06-17T20:59:24.594Z,3.40
2018-06-17T21:01:52.814Z,3.40
2018-06-17T21:04:21.539Z,3.30
2018-06-17T21:06:50.105Z,3.17
2018-06-17T21:09:18.321Z,2.97
2018-06-17T21:11:46.525Z,3.30
2018-06-17T21:14:14.737Z,3.00
2018-06-17T21:16:43.232Z,2.90
2018-06-17T21:19:17.097Z,2.73
2018-06-17T21:21:50.855Z,2.40
2018-06-17T21:24:24.491Z,3.87
2018-06-17T21:26:58.171Z,2.60
2018-06-17T21:29:26.356Z,3.30
2018-06-17T21:31:54.573Z,2.83
2018-06-17T21:34:22.835Z,2.47
2018-06-17T21:36:51.349Z,3.83
2018-06-17T21:39:19.558Z,3.10
2018-06-17T21:41:47.859Z,3.70
2018-06-17T21:44:16.307Z,3.00
2018-06-17T21:46:44.512Z,4.20
2018-06-17T21:49:12.916Z,3.27
2018-06-17T21:51:41.956Z,3.47
2018-06-17T21:54:10.161Z,3.20
2018-06-17T21:56:38.443Z,3.53
2018-06-17T21:59:06.488Z,3.53
2018-06-17T22:01:34.831Z,3.37
2018-06-17T22:04:08.526Z,3.33
2018-06-17T22:06:36.930Z,3.70
2018-06-17T22:09:13.211Z,3.80
2018-06-17T22:11:47.113Z,3.77
2018-06-17T22:14:20.735Z,3.60
2018-06-17T22:16:54.459Z,4.40
2018-06-17T22:19:22.712Z,3.10
2018-06-17T22:21:51.085Z,3.23
2018-06-17T22:24:19.695Z,3.20
2018-06-17T22:26:47.948Z,3.50
2018-06-17T22:29:16.491Z,3.80
2018-06-17T22:31:45.282Z,3.57
2018-06-17T22:34:13.516Z,3.20
2018-06-17T22:36:41.782Z,3.70
2018-06-17T22:39:10.615Z,3.27
2018-06-17T22:41:39.785Z,3.63
2018-06-17T22:44:08.534Z,3.70
2018-06-17T22:46:36.750Z,3.90
2018-06-17T22:49:05.403Z,3.20
2018-06-17T22:51:33.652Z,3.50
2018-06-17T22:54:13.129Z,4.53
2018-06-17T22:56:46.673Z,4.27
2018-06-17T22:59:20.590Z,3.40
2018-06-17T23:01:54.157Z,4.13
2018-06-17T23:04:27.760Z,3.50
2018-06-17T23:07:01.394Z,4.10
2018-06-17T23:09:35.132Z,3.80
2018-06-17T23:12:03.685Z,3.73
2018-06-17T23:14:32.269Z,3.80
2018-06-17T23:17:00.781Z,4.27
2018-06-17T23:19:28.991Z,4.07
2018-06-17T23:21:57.605Z,3.57
2018-06-17T23:24:26.126Z,3.90
2018-06-17T23:26:55.356Z,3.73
2018-06-17T23:29:23.771Z,3.50
2018-06-17T23:31:52.110Z,3.10
2018-06-17T23:34:20.358Z,3.23
2018-06-17T23:36:48.925Z,4.33
2018-06-17T23:39:17.178Z,4.03
2018-06-17T23:41:45.388Z,3.70
2018-06-17T23:44:13.581Z,3.57
2018-06-17T23:46:47.374Z,3.97
2018-06-17T23:49:21.012Z,3.70
2018-06-17T23:51:55.530Z,3.67
2018-06-17T23:54:29.214Z,3.43
2018-06-17T23:56:57.433Z,3.80
2018-06-17T23:59:26.327Z,4.17
